createdAt,value
2022-08-28T00:00:24.760Z,101423.78
2022-08-28T00:02:51.376Z,101413.19
2022-08-28T00:05:18.927Z,101421.16
2022-08-28T00:07:47.816Z,101425.59
2022-08-28T00:10:16.791Z,101422.94
2022-08-28T00:12:43.831Z,101419.44
2022-08-28T00:15:12.889Z,101425.63
2022-08-28T00:17:40.145Z,101426.53
2022-08-28T00:20:08.654Z,101423.00
2022-08-28T00:22:35.232Z,101430.97
2022-08-28T00:25:01.603Z,101423.91
2022-08-28T00:27:46.464Z,101429.22
2022-08-28T00:30:12.876Z,101432.78
2022-08-28T00:32:39.234Z,101433.66
2022-08-28T00:35:06.659Z,101431.00
2022-08-28T00:37:32.980Z,101423.03
2022-08-28T00:39:59.349Z,101424.81
2022-08-28T00:42:25.790Z,101429.25
2022-08-28T00:44:52.099Z,101431.91
2022-08-28T00:47:18.470Z,101429.28
2022-08-28T00:49:49.271Z,101433.72
2022-08-28T00:52:16.091Z,101430.16
2022-08-28T00:54:59.265Z,101439.03
2022-08-28T00:57:37.367Z,101431.94
2022-08-28T01:00:07.221Z,101425.75
2022-08-28T01:02:33.797Z,101439.03
2022-08-28T01:05:00.172Z,101430.19
2022-08-28T01:07:26.602Z,101427.56
2022-08-28T01:09:54.706Z,101425.81
2022-08-28T01:12:23.443Z,101429.38
2022-08-28T01:14:50.797Z,101426.72
2022-08-28T01:17:18.869Z,101432.03
2022-08-28T01:19:56.314Z,101424.06
2022-08-28T01:22:28.063Z,101428.47
2022-08-28T01:24:59.144Z,101426.75
2022-08-28T01:27:25.537Z,101428.50
2022-08-28T01:29:51.894Z,101428.50
2022-08-28T01:32:35.359Z,101421.44
2022-08-28T01:35:02.079Z,101432.97
2022-08-28T01:37:28.729Z,101431.16
2022-08-28T01:39:55.138Z,101435.59
2022-08-28T01:42:21.565Z,101432.06
2022-08-28T01:44:47.899Z,101432.06
2022-08-28T01:47:14.221Z,101442.69
2022-08-28T01:49:40.546Z,101446.22
2022-08-28T01:52:06.842Z,101441.78
2022-08-28T01:54:33.477Z,101446.22
2022-08-28T01:57:00.071Z,101444.47
2022-08-28T01:59:26.448Z,101444.47
2022-08-28T02:01:54.521Z,101443.59
2022-08-28T02:04:21.113Z,101441.81
2022-08-28T02:06:55.983Z,101446.25
2022-08-28T02:09:22.291Z,101451.56
2022-08-28T02:11:48.632Z,101444.50
2022-08-28T02:14:15.298Z,101451.56
2022-08-28T02:16:41.609Z,101442.75
2022-08-28T02:19:07.931Z,101445.38
2022-08-28T02:21:35.498Z,101447.16
2022-08-28T02:24:01.979Z,101440.09
2022-08-28T02:26:28.442Z,101438.31
2022-08-28T02:28:54.744Z,101445.41
2022-08-28T02:31:21.099Z,101450.72
2022-08-28T02:33:47.538Z,101452.47
2022-08-28T02:36:15.279Z,101451.59
2022-08-28T02:38:41.858Z,101457.81
2022-08-28T02:41:08.654Z,101455.13
2022-08-28T02:43:35.038Z,101451.59
2022-08-28T02:46:01.665Z,101454.25
2022-08-28T02:48:29.808Z,101452.50
2022-08-28T02:50:58.257Z,101455.16
2022-08-28T02:53:24.558Z,101452.50
2022-08-28T02:55:50.881Z,101451.63
2022-08-28T02:58:17.777Z,101452.50
2022-08-28T03:00:44.265Z,101449.84
2022-08-28T03:03:10.617Z,101451.59
2022-08-28T03:05:36.941Z,101445.44
2022-08-28T03:08:03.846Z,101446.31
2022-08-28T03:10:30.630Z,101445.41
2022-08-28T03:12:56.950Z,101450.72
2022-08-28T03:15:23.331Z,101443.66
2022-08-28T03:17:50.098Z,101444.50
2022-08-28T03:20:17.507Z,101438.34
2022-08-28T03:23:02.311Z,101446.31
2022-08-28T03:25:28.637Z,101448.94
2022-08-28T03:27:55.122Z,101442.75
2022-08-28T03:30:22.449Z,101442.75
2022-08-28T03:32:48.938Z,101445.41
2022-08-28T03:35:15.699Z,101440.09
2022-08-28T03:37:42.087Z,101442.75
2022-08-28T03:40:10.862Z,101444.53
2022-08-28T03:42:37.219Z,101444.50
2022-08-28T03:45:05.116Z,101447.16
2022-08-28T03:47:31.418Z,101446.28
2022-08-28T03:49:57.805Z,101449.81
2022-08-28T03:52:24.672Z,101456.00
2022-08-28T03:54:51.248Z,101456.84
2022-08-28T03:57:19.211Z,101453.34
2022-08-28T03:59:46.981Z,101458.63
2022-08-28T04:02:13.350Z,101453.31
2022-08-28T04:04:39.671Z,101455.09
2022-08-28T04:07:06.082Z,101455.97
2022-08-28T04:09:32.417Z,101453.31
2022-08-28T04:11:58.733Z,101449.78
2022-08-28T04:14:25.057Z,101457.72
2022-08-28T04:16:51.468Z,101452.41
2022-08-28T04:19:17.811Z,101451.56
2022-08-28T04:21:44.193Z,101457.72
2022-08-28T04:24:10.546Z,101455.06
2022-08-28T04:26:36.944Z,101463.91
2022-08-28T04:29:04.590Z,101449.75
2022-08-28T04:31:32.066Z,101449.75
2022-08-28T04:33:59.931Z,101446.25
2022-08-28T04:36:26.231Z,101451.53
2022-08-28T04:38:52.521Z,101444.44
2022-08-28T04:41:18.845Z,101448.88
2022-08-28T04:43:45.211Z,101450.63
2022-08-28T04:46:13.723Z,101448.88
2022-08-28T04:48:40.537Z,101455.03
2022-08-28T04:51:09.301Z,101462.13
2022-08-28T04:53:36.864Z,101460.38
2022-08-28T04:56:04.674Z,101458.59
2022-08-28T04:58:32.144Z,101472.75
2022-08-28T05:00:58.509Z,101460.38
2022-08-28T05:03:24.923Z,101463.06
2022-08-28T05:05:52.708Z,101458.63
2022-08-28T05:08:20.403Z,101452.47
2022-08-28T05:10:47.077Z,101441.88
2022-08-28T05:13:15.366Z,101451.59
2022-08-28T05:15:44.369Z,101453.34
2022-08-28T05:18:11.523Z,101458.63
2022-08-28T05:20:38.837Z,101453.34
2022-08-28T05:23:05.977Z,101452.47
2022-08-28T05:25:36.385Z,101455.13
2022-08-28T05:28:02.859Z,101458.66
2022-08-28T05:30:29.212Z,101459.56
2022-08-28T05:32:55.523Z,101465.75
2022-08-28T05:35:21.923Z,101461.34
2022-08-28T05:37:48.401Z,101457.81
2022-08-28T05:40:14.820Z,101471.97
2022-08-28T05:42:41.162Z,101471.06
2022-08-28T05:45:08.044Z,101474.56
2022-08-28T05:47:34.477Z,101479.91
2022-08-28T05:50:00.857Z,101470.13
2022-08-28T05:52:28.775Z,101474.53
2022-08-28T05:54:55.219Z,101467.41
2022-08-28T05:57:21.592Z,101479.72
2022-08-28T05:59:47.915Z,101472.56
2022-08-28T06:02:14.273Z,101468.03
2022-08-28T06:04:40.634Z,101475.06
2022-08-28T06:07:08.060Z,101471.41
2022-08-28T06:09:34.399Z,101465.94
2022-08-28T06:12:02.763Z,101464.09
2022-08-28T06:14:29.919Z,101470.13
2022-08-28T06:16:56.702Z,101470.00
2022-08-28T06:19:24.210Z,101468.09
2022-08-28T06:21:53.820Z,101461.84
2022-08-28T06:24:20.268Z,101468.88
2022-08-28T06:26:46.720Z,101463.47
2022-08-28T06:29:15.641Z,101469.59
2022-08-28T06:31:42.151Z,101464.16
2022-08-28T06:34:09.306Z,101464.09
2022-08-28T06:36:37.582Z,101472.88
2022-08-28T06:39:05.252Z,101476.34
2022-08-28T06:41:32.402Z,101469.94
2022-08-28T06:43:59.167Z,101469.81
2022-08-28T06:46:26.669Z,101472.44
2022-08-28T06:48:53.140Z,101481.28
2022-08-28T06:51:19.474Z,101482.00
2022-08-28T06:53:49.505Z,101484.50
2022-08-28T06:56:26.237Z,101481.78
2022-08-28T06:58:54.077Z,101482.41
2022-08-28T07:01:25.494Z,101483.19
2022-08-28T07:03:53.033Z,101483.09
2022-08-28T07:06:20.363Z,101478.47
2022-08-28T07:08:46.771Z,101477.47
2022-08-28T07:11:14.335Z,101472.91
2022-08-28T07:13:41.722Z,101484.22
2022-08-28T07:16:08.880Z,101483.94
2022-08-28T07:18:35.516Z,101487.38
2022-08-28T07:21:02.245Z,101482.09
2022-08-28T07:23:29.353Z,101482.97
2022-08-28T07:25:55.691Z,101488.22
2022-08-28T07:28:22.254Z,101476.41
2022-08-28T07:31:02.116Z,101478.03
2022-08-28T07:33:29.200Z,101480.44
2022-08-28T07:35:56.723Z,101480.91
2022-08-28T07:38:23.791Z,101481.06
2022-08-28T07:40:50.178Z,101480.13
2022-08-28T07:43:35.308Z,101483.75
2022-08-28T07:46:04.273Z,101479.31
2022-08-28T07:48:30.633Z,101480.16
2022-08-28T07:50:57.165Z,101475.56
2022-08-28T07:53:24.282Z,101478.16
2022-08-28T07:55:51.454Z,101476.13
2022-08-28T07:58:19.135Z,101479.25
2022-08-28T08:00:45.885Z,101475.06
2022-08-28T08:03:13.180Z,101480.38
2022-08-28T08:05:39.647Z,101484.94
2022-08-28T08:08:06.237Z,101495.03
2022-08-28T08:10:34.319Z,101492.81
2022-08-28T08:13:01.088Z,101491.56
2022-08-28T08:15:31.250Z,101490.72
2022-08-28T08:17:57.791Z,101487.44
2022-08-28T08:20:24.340Z,101497.84
2022-08-28T08:22:51.099Z,101496.06
2022-08-28T08:25:17.583Z,101489.38
2022-08-28T08:27:43.907Z,101489.09
2022-08-28T08:30:11.388Z,101500.97
2022-08-28T08:32:39.901Z,101501.19
2022-08-28T08:35:06.723Z,101508.63
2022-08-28T08:37:33.223Z,101503.50
2022-08-28T08:39:59.614Z,101500.34
2022-08-28T08:42:29.627Z,101512.94
2022-08-28T08:44:57.590Z,101507.59
2022-08-28T08:47:33.727Z,101514.50
2022-08-28T08:50:01.639Z,101507.47
2022-08-28T08:52:35.254Z,101510.91
2022-08-28T08:55:01.532Z,101514.78
2022-08-28T08:57:28.749Z,101517.63
2022-08-28T08:59:55.133Z,101521.72
2022-08-28T09:02:22.712Z,101522.69
2022-08-28T09:05:01.582Z,101518.34
2022-08-28T09:07:37.962Z,101509.34
2022-08-28T09:10:06.725Z,101517.25
2022-08-28T09:12:40.152Z,101510.44
2022-08-28T09:15:27.590Z,101521.25
2022-08-28T09:17:55.235Z,101513.28
2022-08-28T09:20:32.380Z,101513.94
2022-08-28T09:23:12.660Z,101509.22
2022-08-28T09:25:52.250Z,101511.31
2022-08-28T09:28:24.487Z,101511.00
2022-08-28T09:31:14.172Z,101514.75
2022-08-28T09:33:43.129Z,101514.44
2022-08-28T09:36:28.421Z,101509.91
2022-08-28T09:39:04.160Z,101520.16
2022-08-28T09:41:49.182Z,101517.03
2022-08-28T09:44:15.637Z,101514.84
2022-08-28T09:46:46.726Z,101516.81
2022-08-28T09:49:14.261Z,101514.03
2022-08-28T09:51:41.159Z,101508.13
2022-08-28T09:54:19.535Z,101509.81
2022-08-28T09:56:47.212Z,101505.53
2022-08-28T09:59:15.453Z,101503.38
2022-08-28T10:01:45.021Z,101496.25
2022-08-28T10:04:11.798Z,101486.38
2022-08-28T10:06:38.490Z,101495.53
2022-08-28T10:09:47.685Z,101494.50
2022-08-28T10:12:30.087Z,101488.25
2022-08-28T10:15:04.048Z,101496.47
2022-08-28T10:17:33.286Z,101496.56
2022-08-28T10:20:11.802Z,101500.19
2022-08-28T10:22:51.116Z,101504.53
2022-08-28T10:25:30.787Z,101508.91
2022-08-28T10:28:15.552Z,101516.38
2022-08-28T10:30:55.017Z,101517.38
2022-08-28T10:33:26.923Z,101506.06
2022-08-28T10:35:59.716Z,101501.97
2022-08-28T10:38:34.921Z,101503.19
2022-08-28T10:41:14.791Z,101491.78
2022-08-28T10:43:46.047Z,101499.28
2022-08-28T10:46:14.523Z,101492.72
2022-08-28T10:48:44.019Z,101486.31
2022-08-28T10:51:20.011Z,101486.56
2022-08-28T10:54:04.548Z,101495.19
2022-08-28T10:56:35.907Z,101489.75
2022-08-28T10:59:02.232Z,101495.34
2022-08-28T11:01:30.303Z,101496.59
2022-08-28T11:03:58.669Z,101496.75
2022-08-28T11:06:25.104Z,101493.88
2022-08-28T11:08:53.747Z,101488.47
2022-08-28T11:11:40.749Z,101495.88
2022-08-28T11:14:07.249Z,101493.81
2022-08-28T11:16:33.587Z,101494.16
2022-08-28T11:19:16.156Z,101489.00
2022-08-28T11:21:43.752Z,101493.25
2022-08-28T11:24:21.952Z,101485.28
2022-08-28T11:26:57.908Z,101496.59
2022-08-28T11:29:46.775Z,101500.31
2022-08-28T11:32:37.483Z,101500.25
2022-08-28T11:35:24.792Z,101498.19
2022-08-28T11:37:54.092Z,101489.47
2022-08-28T11:40:24.339Z,101497.66
2022-08-28T11:43:17.177Z,101497.94
2022-08-28T11:46:08.632Z,101494.84
2022-08-28T11:48:45.678Z,101499.94
2022-08-28T11:51:52.460Z,101495.84
2022-08-28T11:54:38.543Z,101495.28
2022-08-28T11:57:08.470Z,101511.34
2022-08-28T11:59:47.091Z,101490.56
2022-08-28T12:02:32.180Z,101490.94
2022-08-28T12:04:58.837Z,101480.41
2022-08-28T12:07:32.964Z,101477.06
2022-08-28T12:10:04.297Z,101488.94
2022-08-28T12:12:46.945Z,101495.97
2022-08-28T12:15:40.338Z,101499.59
2022-08-28T12:18:12.785Z,101488.22
2022-08-28T12:20:44.839Z,101488.56
2022-08-28T12:23:29.674Z,101479.56
2022-08-28T12:26:05.099Z,101488.56
2022-08-28T12:28:33.453Z,101485.72
2022-08-28T12:31:16.586Z,101487.44
2022-08-28T12:33:50.468Z,101482.13
2022-08-28T12:36:19.094Z,101484.50
2022-08-28T12:38:50.048Z,101481.22
2022-08-28T12:41:17.159Z,101484.06
2022-08-28T12:43:46.681Z,101484.22
2022-08-28T12:46:22.922Z,101489.19
2022-08-28T12:48:49.367Z,101487.25
2022-08-28T12:51:20.656Z,101482.53
2022-08-28T12:53:48.915Z,101491.56
2022-08-28T12:56:17.699Z,101492.53
2022-08-28T12:58:44.190Z,101493.56
2022-08-28T13:01:14.786Z,101491.00
2022-08-28T13:03:46.034Z,101493.00
2022-08-28T13:06:12.588Z,101490.63
2022-08-28T13:08:39.248Z,101483.56
2022-08-28T13:11:05.849Z,101481.22
2022-08-28T13:13:37.771Z,101470.88
2022-08-28T13:16:05.516Z,101486.34
2022-08-28T13:18:35.877Z,101472.16
2022-08-28T13:21:17.486Z,101467.81
2022-08-28T13:23:58.603Z,101472.59
2022-08-28T13:26:34.818Z,101471.69
2022-08-28T13:29:04.891Z,101469.97
2022-08-28T13:31:31.247Z,101471.84
2022-08-28T13:34:09.287Z,101477.50
2022-08-28T13:36:41.315Z,101481.31
2022-08-28T13:39:08.264Z,101479.09
2022-08-28T13:41:34.637Z,101482.19
2022-08-28T13:44:00.989Z,101468.03
2022-08-28T13:46:27.330Z,101470.19
2022-08-28T13:48:53.785Z,101469.59
2022-08-28T13:51:21.487Z,101475.31
2022-08-28T13:53:48.341Z,101472.72
2022-08-28T13:56:15.999Z,101468.91
2022-08-28T13:58:42.320Z,101461.47
2022-08-28T14:01:09.964Z,101464.53
2022-08-28T14:03:36.518Z,101465.44
2022-08-28T14:06:14.081Z,101459.38
2022-08-28T14:08:41.300Z,101473.66
2022-08-28T14:11:08.143Z,101468.91
2022-08-28T14:13:39.132Z,101465.41
2022-08-28T14:16:06.516Z,101472.53
2022-08-28T14:18:33.350Z,101462.19
2022-08-28T14:21:00.277Z,101453.91
2022-08-28T14:23:26.618Z,101460.16
2022-08-28T14:25:52.984Z,101455.00
2022-08-28T14:28:19.408Z,101459.56
2022-08-28T14:30:46.948Z,101462.59
2022-08-28T14:33:16.672Z,101465.19
2022-08-28T14:35:43.331Z,101461.00
2022-08-28T14:38:10.300Z,101462.09
2022-08-28T14:40:38.331Z,101480.97
2022-08-28T14:43:09.958Z,101477.78
2022-08-28T14:45:47.293Z,101482.84
2022-08-28T14:48:14.746Z,101470.63
2022-08-28T14:50:42.595Z,101469.56
2022-08-28T14:53:09.680Z,101472.00
2022-08-28T14:55:40.591Z,101476.28
2022-08-28T14:58:07.031Z,101483.53
2022-08-28T15:00:37.391Z,101487.81
2022-08-28T15:03:04.408Z,101480.44
2022-08-28T15:05:30.745Z,101480.56
2022-08-28T15:07:57.069Z,101496.41
2022-08-28T15:10:24.478Z,101482.00
2022-08-28T15:12:50.792Z,101485.97
2022-08-28T15:15:20.216Z,101476.84
2022-08-28T15:17:46.712Z,101484.53
2022-08-28T15:20:13.034Z,101479.25
2022-08-28T15:22:39.406Z,101481.06
2022-08-28T15:25:05.970Z,101482.81
2022-08-28T15:27:33.073Z,101484.75
2022-08-28T15:29:59.391Z,101489.25
2022-08-28T15:32:25.710Z,101491.31
2022-08-28T15:34:52.467Z,101486.88
2022-08-28T15:37:18.831Z,101498.09
2022-08-28T15:40:04.030Z,101497.53
2022-08-28T15:42:31.760Z,101494.25
2022-08-28T15:44:58.078Z,101498.25
2022-08-28T15:47:25.232Z,101495.38
2022-08-28T15:49:55.875Z,101495.50
2022-08-28T15:52:24.443Z,101506.72
2022-08-28T15:54:50.820Z,101517.03
2022-08-28T15:57:17.635Z,101503.00
2022-08-28T15:59:49.071Z,101510.56
2022-08-28T16:02:16.768Z,101506.97
2022-08-28T16:04:43.135Z,101513.19
2022-08-28T16:07:09.514Z,101519.06
2022-08-28T16:09:35.824Z,101521.31
2022-08-28T16:12:02.167Z,101524.31
2022-08-28T16:14:30.730Z,101520.88
2022-08-28T16:16:57.011Z,101516.75
2022-08-28T16:19:24.285Z,101513.44
2022-08-28T16:21:50.601Z,101521.59
2022-08-28T16:24:17.174Z,101519.03
2022-08-28T16:26:43.525Z,101519.13
2022-08-28T16:29:12.900Z,101511.19
2022-08-28T16:31:39.360Z,101518.56
2022-08-28T16:34:06.811Z,101508.03
2022-08-28T16:36:37.203Z,101512.50
2022-08-28T16:39:04.265Z,101524.31
2022-08-28T16:41:31.981Z,101519.88
2022-08-28T16:43:58.432Z,101511.00
2022-08-28T16:46:25.829Z,101512.06
2022-08-28T16:48:52.785Z,101512.97
2022-08-28T16:51:19.805Z,101516.75
2022-08-28T16:53:46.270Z,101512.31
2022-08-28T16:56:14.073Z,101517.69
2022-08-28T16:58:41.495Z,101515.94
2022-08-28T17:01:08.627Z,101521.63
2022-08-28T17:03:38.082Z,101526.34
2022-08-28T17:06:12.870Z,101530.16
2022-08-28T17:08:39.610Z,101535.78
2022-08-28T17:11:06.613Z,101529.81
2022-08-28T17:13:33.805Z,101525.56
2022-08-28T17:16:00.328Z,101529.41
2022-08-28T17:18:26.684Z,101525.19
2022-08-28T17:21:11.547Z,101524.63
2022-08-28T17:23:38.145Z,101527.59
2022-08-28T17:26:04.525Z,101533.13
2022-08-28T17:28:32.352Z,101535.06
2022-08-28T17:30:58.846Z,101526.31
2022-08-28T17:33:25.242Z,101528.25
2022-08-28T17:35:56.997Z,101536.44
2022-08-28T17:38:23.541Z,101534.81
2022-08-28T17:40:49.868Z,101537.63
2022-08-28T17:43:16.209Z,101550.41
2022-08-28T17:45:42.950Z,101560.31
2022-08-28T17:48:09.290Z,101556.91
2022-08-28T17:50:36.416Z,101559.66
2022-08-28T17:53:02.906Z,101563.31
2022-08-28T17:55:29.364Z,101557.22
2022-08-28T17:57:55.815Z,101546.66
2022-08-28T18:00:22.369Z,101554.81
2022-08-28T18:02:50.514Z,101548.69
2022-08-28T18:05:16.948Z,101561.34
2022-08-28T18:07:43.370Z,101563.22
2022-08-28T18:10:11.432Z,101568.63
2022-08-28T18:12:40.945Z,101582.13
2022-08-28T18:15:09.015Z,101587.53
2022-08-28T18:17:36.876Z,101589.41
2022-08-28T18:20:04.588Z,101593.94
2022-08-28T18:22:31.373Z,101596.75
2022-08-28T18:24:57.699Z,101589.69
2022-08-28T18:27:26.491Z,101591.56
2022-08-28T18:29:52.821Z,101602.34
2022-08-28T18:32:19.190Z,101604.22
2022-08-28T18:34:45.526Z,101603.44
2022-08-28T18:37:12.201Z,101609.72
2022-08-28T18:39:39.147Z,101600.00
2022-08-28T18:42:05.584Z,101600.09
2022-08-28T18:44:32.288Z,101600.16
2022-08-28T18:46:59.410Z,101599.31
2022-08-28T18:49:27.021Z,101605.59
2022-08-28T18:51:54.020Z,101610.94
2022-08-28T18:54:21.111Z,101599.41
2022-08-28T18:56:50.387Z,101596.72
2022-08-28T18:59:17.360Z,101591.38
2022-08-28T19:01:44.035Z,101588.72
2022-08-28T19:04:10.609Z,101588.81
2022-08-28T19:06:37.060Z,101584.34
2022-08-28T19:09:05.335Z,101597.75
2022-08-28T19:11:31.958Z,101607.53
2022-08-28T19:13:59.439Z,101607.59
2022-08-28T19:16:31.809Z,101608.53
2022-08-28T19:18:58.435Z,101613.94
2022-08-28T19:21:24.938Z,101609.53
2022-08-28T19:23:55.804Z,101605.97
2022-08-28T19:26:23.092Z,101624.72
2022-08-28T19:28:50.564Z,101621.19
2022-08-28T19:31:17.605Z,101618.50
2022-08-28T19:33:44.748Z,101623.81
2022-08-28T19:36:11.191Z,101626.47
2022-08-28T19:38:37.577Z,101622.94
2022-08-28T19:41:08.119Z,101634.53
2022-08-28T19:43:42.901Z,101630.13
2022-08-28T19:46:19.321Z,101631.84
2022-08-28T19:48:47.369Z,101622.88
2022-08-28T19:51:22.155Z,101621.03
2022-08-28T19:53:56.712Z,101609.47
2022-08-28T19:56:27.050Z,101613.03
2022-08-28T19:58:54.672Z,101607.66
2022-08-28T20:01:21.132Z,101600.53
2022-08-28T20:03:47.593Z,101603.16
2022-08-28T20:06:14.093Z,101602.25
2022-08-28T20:08:40.408Z,101600.53
2022-08-28T20:11:06.996Z,101604.19
2022-08-28T20:13:33.414Z,101601.56
2022-08-28T20:16:03.653Z,101613.13
2022-08-28T20:18:30.078Z,101614.06
2022-08-28T20:20:56.397Z,101605.22
2022-08-28T20:23:22.769Z,101609.72
2022-08-28T20:25:50.139Z,101607.06
2022-08-28T20:28:17.803Z,101610.66
2022-08-28T20:30:44.463Z,101615.09
2022-08-28T20:33:10.963Z,101607.97
2022-08-28T20:35:37.850Z,101615.97
2022-08-28T20:38:04.531Z,101617.66
2022-08-28T20:40:31.177Z,101616.66
2022-08-28T20:42:58.920Z,101623.69
2022-08-28T20:45:25.607Z,101624.47
2022-08-28T20:47:52.024Z,101625.25
2022-08-28T20:50:18.615Z,101634.94
2022-08-28T20:52:45.151Z,101630.34
2022-08-28T20:55:13.118Z,101638.28
2022-08-28T20:57:39.492Z,101637.31
2022-08-28T21:00:08.926Z,101630.13
2022-08-28T21:02:36.257Z,101634.50
2022-08-28T21:05:02.775Z,101638.88
2022-08-28T21:07:29.167Z,101642.38
2022-08-28T21:10:04.877Z,101645.00
2022-08-28T21:12:33.816Z,101641.38
2022-08-28T21:15:00.231Z,101650.25
2022-08-28T21:17:29.777Z,101651.06
2022-08-28T21:20:01.201Z,101641.22
2022-08-28T21:22:29.531Z,101648.34
2022-08-28T21:24:55.944Z,101655.41
2022-08-28T21:27:22.344Z,101666.09
2022-08-28T21:29:48.658Z,101659.88
2022-08-28T21:32:15.127Z,101663.41
2022-08-28T21:34:41.447Z,101662.50
2022-08-28T21:37:07.802Z,101658.97
2022-08-28T21:39:34.721Z,101652.88
2022-08-28T21:42:01.043Z,101655.69
2022-08-28T21:44:27.378Z,101659.34
2022-08-28T21:46:53.691Z,101663.94
2022-08-28T21:49:20.105Z,101659.59
2022-08-28T21:51:46.415Z,101665.03
2022-08-28T21:54:13.197Z,101658.88
2022-08-28T21:56:39.960Z,101670.53
2022-08-28T21:59:06.344Z,101673.28
2022-08-28T22:01:32.813Z,101678.63
2022-08-28T22:03:59.183Z,101677.75
2022-08-28T22:06:26.401Z,101677.75
2022-08-28T22:08:53.518Z,101675.97
2022-08-28T22:11:24.479Z,101670.59
2022-08-28T22:13:51.591Z,101675.03
2022-08-28T22:16:17.911Z,101666.09
2022-08-28T22:18:44.259Z,101664.25
2022-08-28T22:21:30.049Z,101673.97
2022-08-28T22:23:56.442Z,101679.25
2022-08-28T22:26:22.894Z,101680.94
2022-08-28T22:28:49.226Z,101671.09
2022-08-28T22:31:15.981Z,101667.50
2022-08-28T22:33:45.358Z,101667.50
2022-08-28T22:36:11.905Z,101665.78
2022-08-28T22:38:39.287Z,101661.31
2022-08-28T22:41:06.207Z,101668.41
2022-08-28T22:43:32.569Z,101663.97
2022-08-28T22:45:58.985Z,101668.41
2022-08-28T22:48:25.320Z,101668.44
2022-08-28T22:50:51.670Z,101664.94
2022-08-28T22:53:18.008Z,101671.22
2022-08-28T22:55:44.624Z,101674.84
2022-08-28T22:58:11.080Z,101682.00
2022-08-28T23:00:38.403Z,101678.53
2022-08-28T23:03:05.005Z,101675.97
2022-08-28T23:05:32.296Z,101672.44
2022-08-28T23:07:58.617Z,101676.94
2022-08-28T23:10:42.014Z,101679.66
2022-08-28T23:13:14.295Z,101674.41
2022-08-28T23:15:41.356Z,101685.09
2022-08-28T23:18:07.708Z,101680.66
2022-08-28T23:20:34.615Z,101670.94
2022-08-28T23:23:01.658Z,101674.53
2022-08-28T23:25:28.088Z,101679.03
2022-08-28T23:27:55.866Z,101668.34
2022-08-28T23:30:22.804Z,101672.78
2022-08-28T23:32:49.136Z,101672.81
2022-08-28T23:35:16.319Z,101685.31
2022-08-28T23:37:47.986Z,101679.09
2022-08-28T23:40:18.198Z,101680.94
2022-08-28T23:42:46.008Z,101684.56
2022-08-28T23:45:13.149Z,101677.50
2022-08-28T23:47:41.029Z,101679.25
2022-08-28T23:50:09.003Z,101680.16
2022-08-28T23:52:35.805Z,101681.88
2022-08-28T23:55:02.171Z,101675.63
2022-08-28T23:57:28.822Z,101686.31
2022-08-28T23:59:55.511Z,101680.09
